sensor_id;sensor_type;location;lat;lon;timestamp;pressure;altitude;pressure_sealevel;temperature;humidity
64023;BME280;50264;52.088;5.296;2023-02-10T00:01:27;103521.0;;;-0.28;92.65
64023;BME280;50264;52.088;5.296;2023-02-10T00:03:03;103517.0;;;-0.35;92.76
64023;BME280;50264;52.088;5.296;2023-02-10T00:04:39;103519.0;;;-0.37;92.87
64023;BME280;50264;52.088;5.296;2023-02-10T00:06:17;103516.00000000001;;;-0.37;92.86
64023;BME280;50264;52.088;5.296;2023-02-10T00:09:30;103518.0;;;-0.33;92.92
64023;BME280;50264;52.088;5.296;2023-02-10T00:11:07;103515.00000000001;;;-0.37;92.77
64023;BME280;50264;52.088;5.296;2023-02-10T00:12:46;103518.0;;;-0.36;92.8
64023;BME280;50264;52.088;5.296;2023-02-10T00:16:00;103521.0;;;-0.34;92.87
64023;BME280;50264;52.088;5.296;2023-02-10T00:17:37;103525.0;;;-0.36;92.7
64023;BME280;50264;52.088;5.296;2023-02-10T00:19:14;103524.0;;;-0.37;92.6
64023;BME280;50264;52.088;5.296;2023-02-10T00:20:50;103528.0;;;-0.39;92.77
64023;BME280;50264;52.088;5.296;2023-02-10T00:24:03;103521.0;;;-0.41;92.58
64023;BME280;50264;52.088;5.296;2023-02-10T00:25:40;103522.0;;;-0.49;92.84
64023;BME280;50264;52.088;5.296;2023-02-10T00:27:23;103530.0;;;-0.57;93.29
64023;BME280;50264;52.088;5.296;2023-02-10T00:30:36;103525.0;;;-0.62;93.76
64023;BME280;50264;52.088;5.296;2023-02-10T00:32:13;103521.0;;;-0.6;93.98
64023;BME280;50264;52.088;5.296;2023-02-10T00:33:49;103526.0;;;-0.56;94.15
64023;BME280;50264;52.088;5.296;2023-02-10T00:35:25;103526.0;;;-0.57;93.62
64023;BME280;50264;52.088;5.296;2023-02-10T00:38:39;103524.0;;;-0.51;93.72
64023;BME280;50264;52.088;5.296;2023-02-10T00:41:53;103520.0;;;-0.47;93.49
64023;BME280;50264;52.088;5.296;2023-02-10T00:45:07;103519.0;;;-0.54;93.72
64023;BME280;50264;52.088;5.296;2023-02-10T00:46:43;103516.00000000001;;;-0.48;94.16
64023;BME280;50264;52.088;5.296;2023-02-10T00:48:20;103520.0;;;-0.52;93.58
64023;BME280;50264;52.088;5.296;2023-02-10T00:51:32;103522.0;;;-0.45;93.7
64023;BME280;50264;52.088;5.296;2023-02-10T00:53:09;103530.0;;;-0.5;93.21
64023;BME280;50264;52.088;5.296;2023-02-10T00:54:45;103530.0;;;-0.59;93.21
64023;BME280;50264;52.088;5.296;2023-02-10T00:56:21;103528.0;;;-0.63;93.29
64023;BME280;50264;52.088;5.296;2023-02-10T00:59:34;103533.0;;;-0.64;93.4
64023;BME280;50264;52.088;5.296;2023-02-10T01:01:10;103533.0;;;-0.66;93.45
64023;BME280;50264;52.088;5.296;2023-02-10T01:02:47;103530.0;;;-0.64;93.06
64023;BME280;50264;52.088;5.296;2023-02-10T01:06:00;103530.0;;;-0.64;92.87
64023;BME280;50264;52.088;5.296;2023-02-10T01:07:35;103529.0;;;-0.71;93.29
64023;BME280;50264;52.088;5.296;2023-02-10T01:09:12;103532.0;;;-0.63;93.29
64023;BME280;50264;52.088;5.296;2023-02-10T01:12:24;103533.99999999999;;;-0.7;93.25
64023;BME280;50264;52.088;5.296;2023-02-10T01:14:01;103533.0;;;-0.66;93.39
64023;BME280;50264;52.088;5.296;2023-02-10T01:15:41;103532.0;;;-0.56;93.11
64023;BME280;50264;52.088;5.296;2023-02-10T01:17:17;103536.99999999999;;;-0.59;92.82
64023;BME280;50264;52.088;5.296;2023-02-10T01:20:30;103536.99999999999;;;-0.64;92.97
64023;BME280;50264;52.088;5.296;2023-02-10T01:22:07;103539.00000000001;;;-0.62;92.97
64023;BME280;50264;52.088;5.296;2023-02-10T01:23:43;103543.0;;;-0.64;92.96
64023;BME280;50264;52.088;5.296;2023-02-10T01:26:56;103544.0;;;-0.67;93.1
64023;BME280;50264;52.088;5.296;2023-02-10T01:28:33;103549.0;;;-0.66;93.17
64023;BME280;50264;52.088;5.296;2023-02-10T01:30:11;103557.0;;;-0.53;92.74
64023;BME280;50264;52.088;5.296;2023-02-10T01:33:24;103556.0;;;-0.39;91.98
64023;BME280;50264;52.088;5.296;2023-02-10T01:35:00;103556.0;;;-0.26;91.46
64023;BME280;50264;52.088;5.296;2023-02-10T01:36:36;103553.0;;;-0.27;90.9
64023;BME280;50264;52.088;5.296;2023-02-10T01:38:12;103552.0;;;-0.41;91.2
64023;BME280;50264;52.088;5.296;2023-02-10T01:41:25;103550.0;;;-0.5;91.46
64023;BME280;50264;52.088;5.296;2023-02-10T01:43:10;103545.0;;;-0.6;91.91
64023;BME280;50264;52.088;5.296;2023-02-10T01:45:27;103551.0;;;-0.68;92.03
64023;BME280;50264;52.088;5.296;2023-02-10T01:47:07;103553.0;;;-0.64;92.7
64023;BME280;50264;52.088;5.296;2023-02-10T01:48:44;103551.0;;;-0.65;92.41
64023;BME280;50264;52.088;5.296;2023-02-10T01:52:03;103550.0;;;-0.69;92.64
64023;BME280;50264;52.088;5.296;2023-02-10T01:53:43;103551.0;;;-0.7;92.48
64023;BME280;50264;52.088;5.296;2023-02-10T01:55:23;103548.0;;;-0.7;92.33
64023;BME280;50264;52.088;5.296;2023-02-10T01:57:01;103551.0;;;-0.75;92.52
64023;BME280;50264;52.088;5.296;2023-02-10T02:00:15;103551.0;;;-0.75;92.87
64023;BME280;50264;52.088;5.296;2023-02-10T02:01:51;103551.0;;;-0.76;92.96
64023;BME280;50264;52.088;5.296;2023-02-10T02:03:27;103550.0;;;-0.78;92.99
64023;BME280;50264;52.088;5.296;2023-02-10T02:06:43;103554.0;;;-0.8;93.0
64023;BME280;50264;52.088;5.296;2023-02-10T02:08:22;103556.0;;;-0.8;92.95
64023;BME280;50264;52.088;5.296;2023-02-10T02:10:02;103559.99999999999;;;-0.75;93.36
64023;BME280;50264;52.088;5.296;2023-02-10T02:11:47;103558.0;;;-0.72;93.64
64023;BME280;50264;52.088;5.296;2023-02-10T02:15:30;103559.99999999999;;;-0.71;93.36
64023;BME280;50264;52.088;5.296;2023-02-10T02:17:14;103567.0;;;-0.68;93.16
64023;BME280;50264;52.088;5.296;2023-02-10T02:19:00;103565.00000000001;;;-0.65;92.83
64023;BME280;50264;52.088;5.296;2023-02-10T02:21:09;103564.00000000001;;;-0.5;92.4
64023;BME280;50264;52.088;5.296;2023-02-10T02:24:35;103556.0;;;-0.69;92.03
64023;BME280;50264;52.088;5.296;2023-02-10T02:27:02;103558.99999999999;;;-0.75;92.61
64023;BME280;50264;52.088;5.296;2023-02-10T02:29:59;103559.99999999999;;;-0.8;92.86
64023;BME280;50264;52.088;5.296;2023-02-10T02:31:52;103556.0;;;-0.76;92.53
64023;BME280;50264;52.088;5.296;2023-02-10T02:33:36;103556.0;;;-0.82;92.57
64023;BME280;50264;52.088;5.296;2023-02-10T02:35:20;103556.0;;;-0.81;92.64
64023;BME280;50264;52.088;5.296;2023-02-10T02:37:03;103563.00000000001;;;-0.82;93.12
64023;BME280;50264;52.088;5.296;2023-02-10T02:40:19;103559.99999999999;;;-0.8;93.07
64023;BME280;50264;52.088;5.296;2023-02-10T02:42:12;103561.99999999999;;;-0.8;93.07
64023;BME280;50264;52.088;5.296;2023-02-10T02:43:50;103563.00000000001;;;-0.81;92.64
64023;BME280;50264;52.088;5.296;2023-02-10T02:45:30;103563.00000000001;;;-0.85;92.74
64023;BME280;50264;52.088;5.296;2023-02-10T02:47:22;103555.0;;;-0.9;92.95
64023;BME280;50264;52.088;5.296;2023-02-10T02:50:53;103565.00000000001;;;-0.87;93.05
64023;BME280;50264;52.088;5.296;2023-02-10T02:52:42;103565.00000000001;;;-0.88;93.1
64023;BME280;50264;52.088;5.296;2023-02-10T02:56:21;103573.0;;;-0.91;93.25
64023;BME280;50264;52.088;5.296;2023-02-10T02:58:11;103573.0;;;-0.84;93.01
64023;BME280;50264;52.088;5.296;2023-02-10T02:59:54;103577.0;;;-0.88;92.56
64023;BME280;50264;52.088;5.296;2023-02-10T03:03:18;103566.00000000001;;;-0.87;92.5
64023;BME280;50264;52.088;5.296;2023-02-10T03:04:55;103567.0;;;-0.89;92.58
64023;BME280;50264;52.088;5.296;2023-02-10T03:08:08;103565.00000000001;;;-0.91;92.45
64023;BME280;50264;52.088;5.296;2023-02-10T03:11:21;103564.00000000001;;;-0.95;92.77
64023;BME280;50264;52.088;5.296;2023-02-10T03:12:58;103561.99999999999;;;-0.93;92.47
64023;BME280;50264;52.088;5.296;2023-02-10T03:14:34;103565.00000000001;;;-0.95;92.54
64023;BME280;50264;52.088;5.296;2023-02-10T03:17:46;103566.00000000001;;;-1.0;92.28
64023;BME280;50264;52.088;5.296;2023-02-10T03:19:22;103567.0;;;-1.03;92.61
64023;BME280;50264;52.088;5.296;2023-02-10T03:20:58;103569.0;;;-1.02;92.48
64023;BME280;50264;52.088;5.296;2023-02-10T03:24:11;103567.0;;;-1.0;92.59
64023;BME280;50264;52.088;5.296;2023-02-10T03:25:47;103566.00000000001;;;-0.95;92.61
64023;BME280;50264;52.088;5.296;2023-02-10T03:27:23;103567.0;;;-0.99;92.35
64023;BME280;50264;52.088;5.296;2023-02-10T03:30:38;103566.00000000001;;;-1.01;92.88
64023;BME280;50264;52.088;5.296;2023-02-10T03:32:15;103570.0;;;-0.98;92.61
64023;BME280;50264;52.088;5.296;2023-02-10T03:33:51;103563.00000000001;;;-1.02;92.91
64023;BME280;50264;52.088;5.296;2023-02-10T03:35:27;103569.0;;;-0.98;92.77
64023;BME280;50264;52.088;5.296;2023-02-10T03:38:39;103572.0;;;-1.02;92.64
64023;BME280;50264;52.088;5.296;2023-02-10T03:40:16;103570.0;;;-0.92;93.12
64023;BME280;50264;52.088;5.296;2023-02-10T03:41:53;103575.0;;;-0.94;93.18
64023;BME280;50264;52.088;5.296;2023-02-10T03:45:06;103570.0;;;-0.93;93.13
64023;BME280;50264;52.088;5.296;2023-02-10T03:46:43;103574.0;;;-0.9;92.82
64023;BME280;50264;52.088;5.296;2023-02-10T03:48:19;103576.0;;;-1.01;93.06
64023;BME280;50264;52.088;5.296;2023-02-10T03:51:32;103572.0;;;-1.02;93.31
64023;BME280;50264;52.088;5.296;2023-02-10T03:53:08;103575.0;;;-1.02;93.61
64023;BME280;50264;52.088;5.296;2023-02-10T03:54:44;103576.0;;;-0.97;93.17
64023;BME280;50264;52.088;5.296;2023-02-10T03:56:20;103577.0;;;-1.02;92.81
64023;BME280;50264;52.088;5.296;2023-02-10T04:01:11;103573.0;;;-1.05;92.97
64023;BME280;50264;52.088;5.296;2023-02-10T04:02:49;103573.0;;;-1.05;93.31
64023;BME280;50264;52.088;5.296;2023-02-10T04:06:01;103577.0;;;-1.03;92.79
64023;BME280;50264;52.088;5.296;2023-02-10T04:07:37;103574.0;;;-1.08;92.89
64023;BME280;50264;52.088;5.296;2023-02-10T04:09:14;103573.0;;;-1.06;93.26
64023;BME280;50264;52.088;5.296;2023-02-10T04:12:27;103572.0;;;-1.01;93.37
64023;BME280;50264;52.088;5.296;2023-02-10T04:14:03;103581.0;;;-1.09;92.76
64023;BME280;50264;52.088;5.296;2023-02-10T04:15:39;103580.0;;;-1.07;93.52
64023;BME280;50264;52.088;5.296;2023-02-10T04:17:15;103580.0;;;-1.06;93.16
64023;BME280;50264;52.088;5.296;2023-02-10T04:20:27;103584.99999999999;;;-0.98;92.77
64023;BME280;50264;52.088;5.296;2023-02-10T04:22:03;103581.0;;;-0.99;92.9
64023;BME280;50264;52.088;5.296;2023-02-10T04:23:40;103580.0;;;-0.98;92.81
64023;BME280;50264;52.088;5.296;2023-02-10T04:26:52;103589.00000000001;;;-1.01;92.61
64023;BME280;50264;52.088;5.296;2023-02-10T04:28:28;103578.0;;;-0.98;92.98
64023;BME280;50264;52.088;5.296;2023-02-10T04:30:06;103582.0;;;-0.94;93.47
64023;BME280;50264;52.088;5.296;2023-02-10T04:33:20;103583.99999999999;;;-0.94;93.68
64023;BME280;50264;52.088;5.296;2023-02-10T04:34:57;103591.00000000001;;;-0.93;92.96
64023;BME280;50264;52.088;5.296;2023-02-10T04:36:33;103588.00000000001;;;-0.91;93.14
64023;BME280;50264;52.088;5.296;2023-02-10T04:38:09;103597.0;;;-0.88;93.13
64023;BME280;50264;52.088;5.296;2023-02-10T04:41:23;103595.0;;;-0.93;92.65
64023;BME280;50264;52.088;5.296;2023-02-10T04:42:59;103600.0;;;-1.07;92.94
64023;BME280;50264;52.088;5.296;2023-02-10T04:44:35;103596.0;;;-1.08;92.96
64023;BME280;50264;52.088;5.296;2023-02-10T04:49:26;103592.0;;;-1.05;92.95
64023;BME280;50264;52.088;5.296;2023-02-10T04:51:06;103596.0;;;-0.96;93.41
64023;BME280;50264;52.088;5.296;2023-02-10T04:54:19;103589.00000000001;;;-0.99;92.92
64023;BME280;50264;52.088;5.296;2023-02-10T04:55:56;103583.0;;;-1.05;93.0
64023;BME280;50264;52.088;5.296;2023-02-10T04:57:32;103589.00000000001;;;-0.98;92.55
64023;BME280;50264;52.088;5.296;2023-02-10T04:59:08;103586.99999999999;;;-0.88;92.21
64023;BME280;50264;52.088;5.296;2023-02-10T05:02:21;103583.99999999999;;;-1.06;92.0
64023;BME280;50264;52.088;5.296;2023-02-10T05:03:57;103580.0;;;-1.02;92.37
64023;BME280;50264;52.088;5.296;2023-02-10T05:05:33;103572.0;;;-1.0;92.23
64023;BME280;50264;52.088;5.296;2023-02-10T05:08:49;103571.0;;;-1.08;92.5
64023;BME280;50264;52.088;5.296;2023-02-10T05:10:26;103570.0;;;-1.14;92.98
64023;BME280;50264;52.088;5.296;2023-02-10T05:12:04;103570.0;;;-1.09;92.71
64023;BME280;50264;52.088;5.296;2023-02-10T05:13:40;103576.0;;;-1.04;92.53
64023;BME280;50264;52.088;5.296;2023-02-10T05:16:54;103576.0;;;-0.99;92.87
64023;BME280;50264;52.088;5.296;2023-02-10T05:18:30;103578.0;;;-1.0;92.92
64023;BME280;50264;52.088;5.296;2023-02-10T05:20:08;103584.99999999999;;;-0.94;92.35
64023;BME280;50264;52.088;5.296;2023-02-10T05:23:22;103583.99999999999;;;-1.04;92.33
64023;BME280;50264;52.088;5.296;2023-02-10T05:24:58;103582.0;;;-1.03;92.89
64023;BME280;50264;52.088;5.296;2023-02-10T05:26:34;103579.0;;;-1.0;92.98
64023;BME280;50264;52.088;5.296;2023-02-10T05:29:46;103584.99999999999;;;-1.06;92.54
64023;BME280;50264;52.088;5.296;2023-02-10T05:31:23;103582.0;;;-1.06;92.95
64023;BME280;50264;52.088;5.296;2023-02-10T05:32:59;103579.0;;;-1.09;92.37
64023;BME280;50264;52.088;5.296;2023-02-10T05:34:35;103581.0;;;-1.02;93.22
64023;BME280;50264;52.088;5.296;2023-02-10T05:37:47;103583.99999999999;;;-0.92;93.55
64023;BME280;50264;52.088;5.296;2023-02-10T05:39:24;103594.0;;;-1.01;92.76
64023;BME280;50264;52.088;5.296;2023-02-10T05:41:01;103594.0;;;-1.0;92.76
64023;BME280;50264;52.088;5.296;2023-02-10T05:44:13;103596.0;;;-0.96;92.7
64023;BME280;50264;52.088;5.296;2023-02-10T05:45:49;103596.0;;;-0.92;92.81
64023;BME280;50264;52.088;5.296;2023-02-10T05:47:25;103592.0;;;-0.9;92.61
64023;BME280;50264;52.088;5.296;2023-02-10T05:50:40;103580.0;;;-0.84;93.25
64023;BME280;50264;52.088;5.296;2023-02-10T05:52:16;103576.0;;;-0.81;93.29
64023;BME280;50264;52.088;5.296;2023-02-10T05:53:53;103579.0;;;-0.89;92.35
64023;BME280;50264;52.088;5.296;2023-02-10T05:55:30;103573.0;;;-0.88;93.1
64023;BME280;50264;52.088;5.296;2023-02-10T05:58:43;103575.0;;;-0.8;93.04
64023;BME280;50264;52.088;5.296;2023-02-10T06:00:20;103581.0;;;-0.79;93.1
64023;BME280;50264;52.088;5.296;2023-02-10T06:01:56;103583.99999999999;;;-0.85;93.14
64023;BME280;50264;52.088;5.296;2023-02-10T06:05:08;103584.99999999999;;;-0.76;93.11
64023;BME280;50264;52.088;5.296;2023-02-10T06:06:46;103583.0;;;-0.76;93.53
64023;BME280;50264;52.088;5.296;2023-02-10T06:08:23;103578.0;;;-0.66;94.24
64023;BME280;50264;52.088;5.296;2023-02-10T06:11:36;103578.0;;;-0.69;93.93
64023;BME280;50264;52.088;5.296;2023-02-10T06:13:12;103582.0;;;-0.65;93.91
64023;BME280;50264;52.088;5.296;2023-02-10T06:14:48;103582.0;;;-0.6;94.4
64023;BME280;50264;52.088;5.296;2023-02-10T06:16:24;103583.99999999999;;;-0.51;94.57
64023;BME280;50264;52.088;5.296;2023-02-10T06:19:38;103593.0;;;-0.47;94.67
64023;BME280;50264;52.088;5.296;2023-02-10T06:21:16;103594.0;;;-0.5;93.54
64023;BME280;50264;52.088;5.296;2023-02-10T06:22:52;103596.0;;;-0.48;93.67
64023;BME280;50264;52.088;5.296;2023-02-10T06:26:04;103595.0;;;-0.39;94.04
64023;BME280;50264;52.088;5.296;2023-02-10T06:27:40;103592.0;;;-0.34;94.35
64023;BME280;50264;52.088;5.296;2023-02-10T06:29:17;103591.00000000001;;;-0.32;93.24
64023;BME280;50264;52.088;5.296;2023-02-10T06:32:30;103593.0;;;-0.34;93.39
64023;BME280;50264;52.088;5.296;2023-02-10T06:34:08;103602.0;;;-0.23;93.97
64023;BME280;50264;52.088;5.296;2023-02-10T06:35:46;103611.99999999999;;;-0.13;94.52
64023;BME280;50264;52.088;5.296;2023-02-10T06:37:23;103607.0;;;-0.22;93.79
64023;BME280;50264;52.088;5.296;2023-02-10T06:40:36;103605.0;;;-0.24;93.95
64023;BME280;50264;52.088;5.296;2023-02-10T06:42:12;103600.0;;;-0.09;94.37
64023;BME280;50264;52.088;5.296;2023-02-10T06:43:49;103603.0;;;-0.06;93.98
64023;BME280;50264;52.088;5.296;2023-02-10T06:47:00;103596.0;;;-0.08;93.66
64023;BME280;50264;52.088;5.296;2023-02-10T06:48:36;103599.0;;;-0.05;94.04
64023;BME280;50264;52.088;5.296;2023-02-10T06:50:13;103598.0;;;0.08;93.67
64023;BME280;50264;52.088;5.296;2023-02-10T06:53:26;103607.0;;;0.19;93.47
64023;BME280;50264;52.088;5.296;2023-02-10T06:55:03;103604.0;;;0.17;92.95
64023;BME280;50264;52.088;5.296;2023-02-10T06:56:39;103607.0;;;0.17;93.18
64023;BME280;50264;52.088;5.296;2023-02-10T06:58:16;103609.99999999999;;;0.25;93.21
64023;BME280;50264;52.088;5.296;2023-02-10T07:01:29;103611.99999999999;;;0.15;93.46
64023;BME280;50264;52.088;5.296;2023-02-10T07:03:05;103609.99999999999;;;0.2;93.55
64023;BME280;50264;52.088;5.296;2023-02-10T07:04:41;103618.0;;;0.12;93.38
64023;BME280;50264;52.088;5.296;2023-02-10T07:07:55;103616.00000000001;;;0.17;93.28
64023;BME280;50264;52.088;5.296;2023-02-10T07:09:32;103611.99999999999;;;0.11;93.2
64023;BME280;50264;52.088;5.296;2023-02-10T07:11:08;103621.0;;;0.15;93.43
64023;BME280;50264;52.088;5.296;2023-02-10T07:14:21;103619.0;;;0.19;94.53
64023;BME280;50264;52.088;5.296;2023-02-10T07:15:56;103617.0;;;0.2;94.54
64023;BME280;50264;52.088;5.296;2023-02-10T07:17:32;103619.0;;;0.17;94.79
64023;BME280;50264;52.088;5.296;2023-02-10T07:20:45;103621.0;;;0.21;94.46
64023;BME280;50264;52.088;5.296;2023-02-10T07:22:21;103620.0;;;0.24;95.72
64023;BME280;50264;52.088;5.296;2023-02-10T07:23:57;103614.00000000001;;;0.29;95.84
64023;BME280;50264;52.088;5.296;2023-02-10T07:25:33;103608.0;;;0.37;95.4
64023;BME280;50264;52.088;5.296;2023-02-10T07:28:46;103611.99999999999;;;0.33;95.51
64023;BME280;50264;52.088;5.296;2023-02-10T07:30:23;103617.0;;;0.43;95.32
64023;BME280;50264;52.088;5.296;2023-02-10T07:32:00;103619.0;;;0.48;95.35
64023;BME280;50264;52.088;5.296;2023-02-10T07:35:13;103622.0;;;0.47;94.94
64023;BME280;50264;52.088;5.296;2023-02-10T07:36:53;103624.0;;;0.46;95.15
64023;BME280;50264;52.088;5.296;2023-02-10T07:38:30;103639.00000000001;;;0.52;95.0
64023;BME280;50264;52.088;5.296;2023-02-10T07:40:09;103643.0;;;0.57;94.92
64023;BME280;50264;52.088;5.296;2023-02-10T07:43:21;103642.0;;;0.58;94.8
64023;BME280;50264;52.088;5.296;2023-02-10T07:44:57;103645.0;;;0.6;94.51
64023;BME280;50264;52.088;5.296;2023-02-10T07:46:34;103649.0;;;0.61;95.07
64023;BME280;50264;52.088;5.296;2023-02-10T07:49:47;103658.0;;;0.65;95.17
64023;BME280;50264;52.088;5.296;2023-02-10T07:51:24;103653.0;;;0.73;94.92
64023;BME280;50264;52.088;5.296;2023-02-10T07:53:00;103645.0;;;0.79;94.97
64023;BME280;50264;52.088;5.296;2023-02-10T07:56:13;103656.0;;;0.85;93.99
64023;BME280;50264;52.088;5.296;2023-02-10T07:57:51;103663.00000000001;;;0.85;94.84
64023;BME280;50264;52.088;5.296;2023-02-10T07:59:28;103664.00000000001;;;0.91;94.74
64023;BME280;50264;52.088;5.296;2023-02-10T08:01:06;103669.0;;;0.88;94.0
64023;BME280;50264;52.088;5.296;2023-02-10T08:04:19;103664.00000000001;;;0.83;93.73
64023;BME280;50264;52.088;5.296;2023-02-10T08:05:55;103663.00000000001;;;0.82;93.73
64023;BME280;50264;52.088;5.296;2023-02-10T08:10:47;103651.0;;;0.77;94.39
64023;BME280;50264;52.088;5.296;2023-02-10T08:12:23;103652.0;;;0.8;94.79
64023;BME280;50264;52.088;5.296;2023-02-10T08:14:00;103656.0;;;0.85;95.02
64023;BME280;50264;52.088;5.296;2023-02-10T08:17:14;103661.99999999999;;;0.83;95.17
64023;BME280;50264;52.088;5.296;2023-02-10T08:18:51;103654.0;;;0.91;94.82
64023;BME280;50264;52.088;5.296;2023-02-10T08:20:27;103649.0;;;0.88;95.02
64023;BME280;50264;52.088;5.296;2023-02-10T08:22:03;103647.0;;;0.95;95.1
64023;BME280;50264;52.088;5.296;2023-02-10T08:25:16;103647.0;;;1.02;94.58
64023;BME280;50264;52.088;5.296;2023-02-10T08:26:52;103641.00000000001;;;1.06;94.84
64023;BME280;50264;52.088;5.296;2023-02-10T08:28:29;103646.0;;;1.01;94.4
64023;BME280;50264;52.088;5.296;2023-02-10T08:31:43;103649.0;;;1.05;94.92
64023;BME280;50264;52.088;5.296;2023-02-10T08:33:19;103652.0;;;1.1;94.5
64023;BME280;50264;52.088;5.296;2023-02-10T08:34:55;103651.0;;;1.1;95.08
64023;BME280;50264;52.088;5.296;2023-02-10T08:38:09;103654.0;;;1.16;95.03
64023;BME280;50264;52.088;5.296;2023-02-10T08:39:45;103653.0;;;1.19;95.17
64023;BME280;50264;52.088;5.296;2023-02-10T08:41:21;103650.0;;;1.14;95.53
64023;BME280;50264;52.088;5.296;2023-02-10T08:42:57;103654.0;;;1.26;95.48
64023;BME280;50264;52.088;5.296;2023-02-10T08:46:11;103664.00000000001;;;1.23;95.45
64023;BME280;50264;52.088;5.296;2023-02-10T08:47:48;103661.99999999999;;;1.22;95.75
64023;BME280;50264;52.088;5.296;2023-02-10T08:49:25;103668.0;;;1.22;96.06
64023;BME280;50264;52.088;5.296;2023-02-10T08:52:43;103659.99999999999;;;1.32;95.9
64023;BME280;50264;52.088;5.296;2023-02-10T08:54:20;103663.00000000001;;;1.28;95.87
64023;BME280;50264;52.088;5.296;2023-02-10T08:55:59;103659.99999999999;;;1.27;96.13
64023;BME280;50264;52.088;5.296;2023-02-10T08:57:38;103668.0;;;1.28;96.28
64023;BME280;50264;52.088;5.296;2023-02-10T09:00:52;103664.00000000001;;;1.47;96.08
64023;BME280;50264;52.088;5.296;2023-02-10T09:02:30;103663.00000000001;;;1.51;95.49
64023;BME280;50264;52.088;5.296;2023-02-10T09:04:07;103661.99999999999;;;1.59;95.4
64023;BME280;50264;52.088;5.296;2023-02-10T09:07:22;103665.00000000001;;;1.48;95.94
64023;BME280;50264;52.088;5.296;2023-02-10T09:09:00;103671.0;;;1.47;96.09
64023;BME280;50264;52.088;5.296;2023-02-10T09:10:38;103674.0;;;1.57;96.11
64023;BME280;50264;52.088;5.296;2023-02-10T09:12:14;103673.0;;;1.53;96.13
64023;BME280;50264;52.088;5.296;2023-02-10T09:15:28;103674.0;;;1.55;96.29
64023;BME280;50264;52.088;5.296;2023-02-10T09:17:04;103678.0;;;1.62;96.36
64023;BME280;50264;52.088;5.296;2023-02-10T09:18:41;103677.0;;;1.66;96.04
64023;BME280;50264;52.088;5.296;2023-02-10T09:21:55;103672.0;;;1.77;96.04
64023;BME280;50264;52.088;5.296;2023-02-10T09:23:32;103667.0;;;1.79;95.94
64023;BME280;50264;52.088;5.296;2023-02-10T09:25:08;103677.0;;;1.78;96.21
64023;BME280;50264;52.088;5.296;2023-02-10T09:28:21;103678.0;;;1.92;95.75
64023;BME280;50264;52.088;5.296;2023-02-10T09:29:59;103684.99999999999;;;1.94;95.55
64023;BME280;50264;52.088;5.296;2023-02-10T09:31:36;103681.0;;;2.05;94.97
64023;BME280;50264;52.088;5.296;2023-02-10T09:33:12;103679.0;;;2.07;95.07
64023;BME280;50264;52.088;5.296;2023-02-10T09:36:24;103681.0;;;2.05;95.37
64023;BME280;50264;52.088;5.296;2023-02-10T09:38:00;103684.99999999999;;;2.06;95.66
64023;BME280;50264;52.088;5.296;2023-02-10T09:39:38;103683.99999999999;;;2.04;95.93
64023;BME280;50264;52.088;5.296;2023-02-10T09:43:18;103682.0;;;2.09;96.07
64023;BME280;50264;52.088;5.296;2023-02-10T09:45:09;103684.99999999999;;;2.12;95.93
64023;BME280;50264;52.088;5.296;2023-02-10T09:46:59;103684.99999999999;;;2.21;96.22
64023;BME280;50264;52.088;5.296;2023-02-10T09:49:07;103689.00000000001;;;2.25;96.31
64023;BME280;50264;52.088;5.296;2023-02-10T09:50:55;103688.00000000001;;;2.23;96.29
64023;BME280;50264;52.088;5.296;2023-02-10T09:52:43;103683.99999999999;;;2.32;96.24
64023;BME280;50264;52.088;5.296;2023-02-10T09:54:31;103682.0;;;2.31;97.1
64023;BME280;50264;52.088;5.296;2023-02-10T09:56:13;103681.0;;;2.46;97.08
64023;BME280;50264;52.088;5.296;2023-02-10T09:59:36;103680.0;;;2.54;96.47
64023;BME280;50264;52.088;5.296;2023-02-10T10:01:17;103678.0;;;2.54;96.77
64023;BME280;50264;52.088;5.296;2023-02-10T10:02:57;103677.0;;;2.62;96.89
64023;BME280;50264;52.088;5.296;2023-02-10T10:04:37;103680.0;;;2.68;96.96
64023;BME280;50264;52.088;5.296;2023-02-10T10:07:58;103672.0;;;2.82;96.91
64023;BME280;50264;52.088;5.296;2023-02-10T10:09:40;103674.0;;;2.91;96.2
64023;BME280;50264;52.088;5.296;2023-02-10T10:11:25;103677.0;;;2.97;95.98
64023;BME280;50264;52.088;5.296;2023-02-10T10:13:02;103673.0;;;3.01;96.22
64023;BME280;50264;52.088;5.296;2023-02-10T10:16:24;103681.0;;;3.18;95.89
64023;BME280;50264;52.088;5.296;2023-02-10T10:18:10;103677.0;;;3.32;94.5
64023;BME280;50264;52.088;5.296;2023-02-10T10:20:02;103676.0;;;3.24;94.77
64023;BME280;50264;52.088;5.296;2023-02-10T10:21:52;103677.0;;;3.42;94.05
64023;BME280;50264;52.088;5.296;2023-02-10T10:23:44;103674.0;;;3.45;93.99
64023;BME280;50264;52.088;5.296;2023-02-10T10:25:48;103669.0;;;3.47;94.75
64023;BME280;50264;52.088;5.296;2023-02-10T10:28:22;103664.00000000001;;;3.53;94.61
64023;BME280;50264;52.088;5.296;2023-02-10T10:30:09;103656.0;;;3.57;94.25
64023;BME280;50264;52.088;5.296;2023-02-10T10:31:52;103667.0;;;3.53;93.86
64023;BME280;50264;52.088;5.296;2023-02-10T10:35:19;103666.00000000001;;;3.52;93.19
64023;BME280;50264;52.088;5.296;2023-02-10T10:36:58;103667.0;;;3.63;93.68
64023;BME280;50264;52.088;5.296;2023-02-10T10:38:39;103658.0;;;3.81;93.74
64023;BME280;50264;52.088;5.296;2023-02-10T10:40:24;103645.0;;;3.98;92.56
64023;BME280;50264;52.088;5.296;2023-02-10T10:43:55;103648.0;;;4.09;92.02
64023;BME280;50264;52.088;5.296;2023-02-10T10:45:36;103647.0;;;4.12;91.77
64023;BME280;50264;52.088;5.296;2023-02-10T10:47:19;103650.0;;;4.16;91.55
64023;BME280;50264;52.088;5.296;2023-02-10T10:49:01;103655.0;;;4.21;90.77
64023;BME280;50264;52.088;5.296;2023-02-10T10:50:38;103653.0;;;4.42;90.3
64023;BME280;50264;52.088;5.296;2023-02-10T10:54:05;103652.0;;;4.37;89.63
64023;BME280;50264;52.088;5.296;2023-02-10T10:55:43;103658.0;;;4.38;89.46
64023;BME280;50264;52.088;5.296;2023-02-10T10:57:25;103657.0;;;4.41;89.57
64023;BME280;50264;52.088;5.296;2023-02-10T10:59:11;103651.0;;;4.41;90.09
64023;BME280;50264;52.088;5.296;2023-02-10T11:02:27;103648.0;;;4.58;89.96